Teaticket, Massachusetts
Current Conditions -  °F | °C
As of 7:15 AM on Saturday 20 Dec 2014 (Local Time) from KFMH Reporting Station
Unknown Precip Unknown Precip  
Wind Chill: 26°   Ceiling: 2300
Heat Index: 32°   Visibility: 8mi
Dew Point: 27°   Wind: 7mph
Humidity: 80%   Direction: 300°WNW
Pressure: 30.22"   Gusts: NA
Location:  41.6005°N, 70.5664°W
Report Text: KFMH 201215Z AUTO 30006KT 8SM -UP OVC023 00/M03 A3022 RMK AO2
Loading
Personal Weather Stations






























Interactive Weather Map New forecast layout! Learn more

10-Day Weather Forecast

Advertisements
Track Severe Weather on mobile